createdAt,value
2022-08-05T00:01:30.304Z,98943.44
2022-08-05T00:04:03.690Z,98994.00
2022-08-05T00:06:33.259Z,99015.09
2022-08-05T00:09:03.277Z,99040.63
2022-08-05T00:11:35.213Z,99052.56
2022-08-05T00:14:17.549Z,99039.75
2022-08-05T00:16:52.661Z,99040.25
2022-08-05T00:19:24.858Z,99035.84
2022-08-05T00:21:52.030Z,99036.06
2022-08-05T00:24:24.789Z,99045.13
2022-08-05T00:26:57.177Z,99045.72
2022-08-05T00:29:26.066Z,99039.47
2022-08-05T00:32:12.984Z,99036.56
2022-08-05T00:35:05.558Z,99041.41
2022-08-05T00:37:50.528Z,99031.63
2022-08-05T00:40:26.706Z,99025.22
2022-08-05T00:42:56.740Z,99021.28
2022-08-05T00:45:28.143Z,99010.97
2022-08-05T00:48:05.636Z,98998.81
2022-08-05T00:50:32.577Z,99017.91
2022-08-05T00:52:59.093Z,99018.59
2022-08-05T00:55:34.137Z,99027.69
2022-08-05T00:58:13.891Z,99021.44
2022-08-05T01:00:42.268Z,99022.91
2022-08-05T01:03:10.582Z,99017.91
2022-08-05T01:05:48.843Z,99012.66
2022-08-05T01:08:41.548Z,99015.16
2022-08-05T01:11:33.481Z,99011.59
2022-08-05T01:14:03.990Z,99012.47
2022-08-05T01:16:47.963Z,99011.22
2022-08-05T01:19:56.621Z,98999.28
2022-08-05T01:22:24.367Z,99011.91
2022-08-05T01:25:01.677Z,99012.97
2022-08-05T01:27:50.666Z,99016.56
2022-08-05T01:30:34.502Z,99030.03
2022-08-05T01:33:06.264Z,99034.41
2022-08-05T01:35:51.832Z,99026.22
2022-08-05T01:38:27.207Z,99023.28
2022-08-05T01:40:59.688Z,99026.25
2022-08-05T01:43:28.287Z,99033.00
2022-08-05T01:45:56.465Z,99033.22
2022-08-05T01:48:28.505Z,99029.66
2022-08-05T01:50:57.114Z,99014.75
2022-08-05T01:53:56.960Z,99000.50
2022-08-05T01:58:11.255Z,98999.06
2022-08-05T01:59:09.166Z,98989.66
2022-08-05T02:01:39.993Z,98995.56
2022-08-05T02:04:10.320Z,98996.59
2022-08-05T02:06:38.914Z,99002.28
2022-08-05T02:09:07.290Z,99002.47
2022-08-05T02:11:52.280Z,98997.03
2022-08-05T02:14:32.016Z,99003.34
2022-08-05T02:17:08.968Z,99012.97
2022-08-05T02:20:01.697Z,99016.53
2022-08-05T02:22:41.922Z,99024.69
2022-08-05T02:25:15.598Z,99024.94
2022-08-05T02:27:59.671Z,99041.31
2022-08-05T02:30:54.411Z,99069.38
2022-08-05T02:33:24.681Z,99089.28
2022-08-05T02:36:14.596Z,99111.94
2022-08-05T02:38:53.098Z,99139.41
2022-08-05T02:41:22.989Z,99168.50
2022-08-05T02:44:02.429Z,99188.66
2022-08-05T02:46:53.231Z,99202.47
2022-08-05T02:49:37.108Z,99212.09
2022-08-05T02:52:08.827Z,99214.19
2022-08-05T02:54:41.474Z,99210.41
2022-08-05T02:58:12.161Z,99207.91
2022-08-05T02:59:59.409Z,99208.72
2022-08-05T03:02:33.837Z,99197.19
2022-08-05T03:05:01.867Z,99194.88
2022-08-05T03:08:00.409Z,99203.06
2022-08-05T03:10:21.850Z,99214.81
2022-08-05T03:12:52.506Z,99217.97
2022-08-05T03:15:20.291Z,99217.16
2022-08-05T03:17:46.729Z,99229.94
2022-08-05T03:20:13.888Z,99233.50
2022-08-05T03:22:44.073Z,99225.13
2022-08-05T03:25:32.906Z,99211.69
2022-08-05T03:28:07.009Z,99217.16
2022-08-05T03:30:38.279Z,99216.28
2022-08-05T03:33:08.084Z,99242.91
2022-08-05T03:35:41.215Z,99232.59
2022-08-05T03:38:10.950Z,99232.81
2022-08-05T03:40:48.462Z,99223.16
2022-08-05T03:44:09.948Z,99223.75
2022-08-05T03:46:04.611Z,99222.66
2022-08-05T03:48:35.348Z,99228.34
2022-08-05T03:52:38.671Z,99226.44
2022-08-05T03:55:50.693Z,99235.06
2022-08-05T03:57:16.417Z,99248.25
2022-08-05T03:59:54.738Z,99238.63
2022-08-05T04:02:37.684Z,99240.50
2022-08-05T04:05:09.687Z,99243.22
2022-08-05T04:07:58.080Z,99240.06
2022-08-05T04:10:30.946Z,99227.88
2022-08-05T04:13:00.439Z,99224.34
2022-08-05T04:15:32.957Z,99227.03
2022-08-05T04:18:06.747Z,99217.59
2022-08-05T04:20:34.540Z,99215.88
2022-08-05T04:23:01.336Z,99213.16
2022-08-05T04:25:56.562Z,99199.34
2022-08-05T04:28:14.486Z,99170.06
2022-08-05T04:30:41.637Z,99160.03
2022-08-05T04:33:09.542Z,99156.88
2022-08-05T04:36:15.889Z,99152.88
2022-08-05T04:38:22.636Z,99132.81
2022-08-05T04:41:07.341Z,99141.16
2022-08-05T04:43:36.042Z,99110.19
2022-08-05T04:46:05.428Z,99082.16
2022-08-05T04:48:32.042Z,99050.75
2022-08-05T04:51:03.002Z,99036.53
2022-08-05T04:53:33.618Z,99006.81
2022-08-05T04:56:33.903Z,99001.38
2022-08-05T04:58:49.618Z,98998.66
2022-08-05T05:01:50.356Z,99037.53
2022-08-05T05:04:04.632Z,99072.28
2022-08-05T05:06:39.034Z,99073.31
2022-08-05T05:09:14.008Z,99098.03
2022-08-05T05:11:55.741Z,99098.66
2022-08-05T05:14:31.273Z,99096.59
2022-08-05T05:16:59.352Z,99088.88
2022-08-05T05:19:26.542Z,99094.75
2022-08-05T05:21:55.667Z,99103.75
2022-08-05T05:24:22.394Z,99102.69
2022-08-05T05:27:08.888Z,99116.28
2022-08-05T05:30:03.473Z,99126.59
2022-08-05T05:32:23.224Z,99147.09
2022-08-05T05:34:52.505Z,99160.09
2022-08-05T05:37:19.157Z,99175.41
2022-08-05T05:39:45.867Z,99182.72
2022-08-05T05:42:12.621Z,99195.72
2022-08-05T05:44:42.915Z,99194.03
2022-08-05T05:47:13.456Z,99184.22
2022-08-05T05:50:01.781Z,99174.34
2022-08-05T05:52:37.888Z,99167.88
2022-08-05T05:55:13.692Z,99173.56
2022-08-05T05:57:51.929Z,99186.53
2022-08-05T06:00:21.946Z,99181.09
2022-08-05T06:02:58.303Z,99186.53
2022-08-05T06:05:25.609Z,99206.44
2022-08-05T06:08:01.210Z,99204.38
2022-08-05T06:10:29.387Z,99193.91
2022-08-05T06:13:01.091Z,99198.28
2022-08-05T06:16:28.159Z,99208.75
2022-08-05T06:18:14.388Z,99189.47
2022-08-05T06:20:42.031Z,99197.03
2022-08-05T06:23:14.499Z,99200.78
2022-08-05T06:26:13.462Z,99186.13
2022-08-05T06:28:28.565Z,99183.22
2022-08-05T06:30:55.602Z,99172.47
2022-08-05T06:34:04.618Z,99173.31
2022-08-05T06:36:10.303Z,99180.81
2022-08-05T06:38:37.192Z,99175.13
2022-08-05T06:41:05.317Z,99167.56
2022-08-05T06:43:57.743Z,99176.53
2022-08-05T06:46:21.282Z,99178.53
2022-08-05T06:48:56.136Z,99178.69
2022-08-05T06:51:29.882Z,99164.00
2022-08-05T06:54:02.358Z,99164.72
2022-08-05T06:56:29.843Z,99160.19
2022-08-05T06:58:56.481Z,99163.34
2022-08-05T07:01:27.648Z,99173.66
2022-08-05T07:03:59.380Z,99177.25
2022-08-05T07:06:27.626Z,99176.03
2022-08-05T07:08:55.215Z,99183.16
2022-08-05T07:11:22.583Z,99173.75
2022-08-05T07:14:20.678Z,99176.47
2022-08-05T07:17:58.330Z,99184.53
2022-08-05T07:20:32.125Z,99191.44
2022-08-05T07:22:37.095Z,99198.63
2022-08-05T07:25:55.316Z,99198.44
2022-08-05T07:27:57.542Z,99210.19
2022-08-05T07:30:32.204Z,99216.69
2022-08-05T07:33:01.305Z,99227.16
2022-08-05T07:35:55.918Z,99238.16
2022-08-05T07:38:32.091Z,99246.00
2022-08-05T07:41:16.708Z,99239.31
2022-08-05T07:43:49.754Z,99235.38
2022-08-05T07:46:25.378Z,99241.03
2022-08-05T07:49:04.225Z,99249.41
2022-08-05T07:51:37.565Z,99260.94
2022-08-05T07:54:15.540Z,99248.94
2022-08-05T07:57:13.812Z,99267.00
2022-08-05T07:59:38.223Z,99270.41
2022-08-05T08:02:15.517Z,99278.81
2022-08-05T08:04:43.139Z,99283.41
2022-08-05T08:07:12.242Z,99285.91
2022-08-05T08:09:38.760Z,99291.75
2022-08-05T08:12:15.918Z,99291.97
2022-08-05T08:14:53.555Z,99300.38
2022-08-05T08:17:21.287Z,99288.84
2022-08-05T08:20:21.496Z,99294.72
2022-08-05T08:22:35.445Z,99299.34
2022-08-05T08:25:03.230Z,99313.81
2022-08-05T08:27:35.700Z,99310.25
2022-08-05T08:30:27.617Z,99326.59
2022-08-05T08:33:04.352Z,99333.50
2022-08-05T08:35:34.738Z,99345.03
2022-08-05T08:38:01.969Z,99344.22
2022-08-05T08:40:29.931Z,99345.03
2022-08-05T08:42:58.708Z,99355.94
2022-08-05T08:45:46.800Z,99345.03
2022-08-05T08:48:36.043Z,99338.97
2022-08-05T08:51:22.976Z,99340.44
2022-08-05T08:53:50.643Z,99339.38
2022-08-05T08:56:19.317Z,99335.22
2022-08-05T08:58:49.017Z,99337.94
2022-08-05T09:01:19.654Z,99334.16
2022-08-05T09:03:55.263Z,99318.03
2022-08-05T09:06:24.214Z,99320.94
2022-08-05T09:08:57.042Z,99314.00
2022-08-05T09:11:53.354Z,99298.81
2022-08-05T09:14:56.768Z,99274.44
2022-08-05T09:17:00.370Z,99278.69
2022-08-05T09:19:27.855Z,99275.00
2022-08-05T09:22:22.000Z,99283.59
2022-08-05T09:25:01.391Z,99295.53
2022-08-05T09:28:04.213Z,99291.75
2022-08-05T09:30:23.425Z,99291.31
2022-08-05T09:32:51.730Z,99295.69
2022-08-05T09:35:26.888Z,99279.94
2022-08-05T09:38:16.671Z,99293.91
2022-08-05T09:40:52.710Z,99298.41
2022-08-05T09:43:40.820Z,99282.78
2022-08-05T09:46:32.435Z,99285.09
2022-08-05T09:49:07.264Z,99283.53
2022-08-05T09:51:48.899Z,99274.31
2022-08-05T09:54:21.404Z,99273.56
2022-08-05T09:56:56.143Z,99273.44
2022-08-05T09:59:28.001Z,99272.78
2022-08-05T10:01:58.368Z,99288.84
2022-08-05T10:04:36.053Z,99288.00
2022-08-05T10:07:20.098Z,99295.00
2022-08-05T10:10:14.181Z,99297.38
2022-08-05T10:13:02.568Z,99305.44
2022-08-05T10:15:41.238Z,99318.06
2022-08-05T10:18:10.109Z,99318.50
2022-08-05T10:20:47.679Z,99328.59
2022-08-05T10:23:34.168Z,99331.53
2022-08-05T10:26:14.052Z,99344.38
2022-08-05T10:28:44.052Z,99354.28
2022-08-05T10:32:49.511Z,99357.66
2022-08-05T10:34:03.371Z,99372.31
2022-08-05T10:36:30.784Z,99367.28
2022-08-05T10:39:10.135Z,99367.94
2022-08-05T10:42:00.850Z,99373.84
2022-08-05T10:44:29.315Z,99380.78
2022-08-05T10:46:56.819Z,99387.66
2022-08-05T10:49:26.951Z,99386.56
2022-08-05T10:52:02.391Z,99389.53
2022-08-05T10:55:01.834Z,99403.34
2022-08-05T10:57:29.390Z,99409.63
2022-08-05T11:00:19.251Z,99413.81
2022-08-05T11:02:59.068Z,99411.72
2022-08-05T11:06:05.094Z,99416.94
2022-08-05T11:08:38.061Z,99417.41
2022-08-05T11:11:44.446Z,99408.41
2022-08-05T11:15:01.454Z,99425.66
2022-08-05T11:17:58.950Z,99422.03
2022-08-05T11:20:34.928Z,99434.44
2022-08-05T11:24:02.655Z,99441.31
2022-08-05T11:26:28.440Z,99446.56
2022-08-05T11:29:11.646Z,99446.94
2022-08-05T11:31:56.448Z,99472.44
2022-08-05T11:34:38.635Z,99468.00
2022-08-05T11:37:06.158Z,99478.84
2022-08-05T11:40:00.398Z,99486.03
2022-08-05T11:42:37.851Z,99505.94
2022-08-05T11:45:14.205Z,99508.28
2022-08-05T11:47:55.680Z,99516.13
2022-08-05T11:50:22.782Z,99526.41
2022-08-05T11:52:52.071Z,99517.25
2022-08-05T11:55:21.181Z,99532.13
2022-08-05T11:58:09.152Z,99521.75
2022-08-05T12:00:38.527Z,99532.22
2022-08-05T12:03:29.515Z,99533.69
2022-08-05T12:06:10.111Z,99532.09
2022-08-05T12:08:49.809Z,99525.47
2022-08-05T12:11:24.790Z,99527.13
2022-08-05T12:14:06.007Z,99533.47
2022-08-05T12:16:45.137Z,99526.53
2022-08-05T12:20:27.691Z,99535.28
2022-08-05T12:21:58.673Z,99537.66
2022-08-05T12:24:27.831Z,99529.69
2022-08-05T12:26:54.711Z,99522.50
2022-08-05T12:29:23.820Z,99532.31
2022-08-05T12:31:55.286Z,99547.72
2022-08-05T12:34:28.250Z,99543.91
2022-08-05T12:36:57.031Z,99538.06
2022-08-05T12:39:34.570Z,99553.31
2022-08-05T12:42:18.329Z,99556.06
2022-08-05T12:44:47.611Z,99562.81
2022-08-05T12:47:28.556Z,99559.59
2022-08-05T12:50:04.071Z,99554.69
2022-08-05T12:52:41.682Z,99550.00
2022-08-05T12:55:28.346Z,99549.16
2022-08-05T12:58:50.933Z,99553.03
2022-08-05T13:02:03.203Z,99559.09
2022-08-05T13:03:41.682Z,99564.84
2022-08-05T13:06:19.686Z,99557.47
2022-08-05T13:08:51.724Z,99560.81
2022-08-05T13:11:57.910Z,99563.16
2022-08-05T13:14:19.485Z,99560.31
2022-08-05T13:16:57.375Z,99561.03
2022-08-05T13:19:51.055Z,99565.53
2022-08-05T13:22:14.573Z,99564.56
2022-08-05T13:24:57.467Z,99555.50
2022-08-05T13:27:38.141Z,99566.03
2022-08-05T13:30:35.105Z,99566.53
2022-08-05T13:32:57.536Z,99564.34
2022-08-05T13:35:42.522Z,99569.72
2022-08-05T13:38:28.338Z,99564.69
2022-08-05T13:40:58.533Z,99565.91
2022-08-05T13:43:45.475Z,99567.75
2022-08-05T13:46:12.026Z,99571.66
2022-08-05T13:48:58.582Z,99565.06
2022-08-05T13:51:40.184Z,99558.81
2022-08-05T13:54:12.332Z,99554.19
2022-08-05T13:56:50.858Z,99553.75
2022-08-05T13:59:24.125Z,99562.59
2022-08-05T14:01:57.968Z,99556.31
2022-08-05T14:04:49.968Z,99557.56
2022-08-05T14:07:25.822Z,99557.44
2022-08-05T14:10:14.077Z,99555.28
2022-08-05T14:12:48.798Z,99550.78
2022-08-05T14:16:06.927Z,99551.09
2022-08-05T14:18:05.156Z,99552.88
2022-08-05T14:20:31.714Z,99567.00
2022-08-05T14:22:59.641Z,99568.47
2022-08-05T14:25:28.232Z,99556.31
2022-08-05T14:27:58.427Z,99558.97
2022-08-05T14:30:26.646Z,99555.81
2022-08-05T14:32:54.647Z,99552.66
2022-08-05T14:35:23.404Z,99552.38
2022-08-05T14:38:04.473Z,99555.06
2022-08-05T14:40:31.135Z,99539.53
2022-08-05T14:42:57.573Z,99552.19
2022-08-05T14:45:24.932Z,99549.38
2022-08-05T14:48:05.428Z,99549.38
2022-08-05T14:50:39.668Z,99546.41
2022-08-05T14:53:06.656Z,99541.09
2022-08-05T14:55:39.362Z,99534.28
2022-08-05T14:58:10.811Z,99538.28
2022-08-05T15:00:38.653Z,99543.81
2022-08-05T15:03:06.060Z,99543.72
2022-08-05T15:06:12.754Z,99542.38
2022-08-05T15:08:58.544Z,99537.41
2022-08-05T15:11:09.306Z,99532.88
2022-08-05T15:13:46.161Z,99529.69
2022-08-05T15:16:13.361Z,99530.28
2022-08-05T15:18:40.279Z,99530.31
2022-08-05T15:21:08.611Z,99525.63
2022-08-05T15:23:35.347Z,99538.00
2022-08-05T15:26:04.798Z,99545.34
2022-08-05T15:28:31.550Z,99541.03
2022-08-05T15:30:58.117Z,99539.31
2022-08-05T15:33:56.706Z,99552.88
2022-08-05T15:36:17.652Z,99549.31
2022-08-05T15:40:41.471Z,99547.81
2022-08-05T15:41:56.142Z,99543.13
2022-08-05T15:44:25.690Z,99556.63
2022-08-05T15:46:54.506Z,99564.03
2022-08-05T15:49:40.942Z,99565.13
2022-08-05T15:52:29.307Z,99564.25
2022-08-05T15:54:55.884Z,99565.06
2022-08-05T15:57:23.369Z,99569.66
2022-08-05T15:59:54.030Z,99571.34
2022-08-05T16:02:27.746Z,99583.94
2022-08-05T16:04:55.420Z,99578.69
2022-08-05T16:07:22.947Z,99589.41
2022-08-05T16:09:49.681Z,99582.72
2022-08-05T16:12:17.237Z,99587.53
2022-08-05T16:14:46.640Z,99592.38
2022-08-05T16:17:13.732Z,99592.81
2022-08-05T16:20:04.553Z,99591.56
2022-08-05T16:22:27.871Z,99594.09
2022-08-05T16:25:01.042Z,99590.94
2022-08-05T16:28:00.690Z,99591.16
2022-08-05T16:30:26.270Z,99599.56
2022-08-05T16:32:58.101Z,99590.72
2022-08-05T16:35:28.617Z,99598.75
2022-08-05T16:38:16.110Z,99605.06
2022-08-05T16:40:55.076Z,99605.06
2022-08-05T16:43:31.652Z,99604.44
2022-08-05T16:46:03.673Z,99602.50
2022-08-05T16:48:35.656Z,99609.25
2022-08-05T16:51:08.976Z,99610.50
2022-08-05T16:54:03.188Z,99616.41
2022-08-05T16:56:23.764Z,99619.34
2022-08-05T16:58:50.512Z,99621.81
2022-08-05T17:01:17.135Z,99630.22
2022-08-05T17:03:45.724Z,99619.28
2022-08-05T17:06:12.588Z,99625.19
2022-08-05T17:08:52.777Z,99628.13
2022-08-05T17:11:25.515Z,99632.25
2022-08-05T17:14:00.200Z,99634.34
2022-08-05T17:16:36.648Z,99628.44
2022-08-05T17:19:09.714Z,99632.22
2022-08-05T17:21:39.751Z,99630.25
2022-08-05T17:24:27.993Z,99630.81
2022-08-05T17:26:56.904Z,99632.91
2022-08-05T17:29:33.467Z,99643.81
2022-08-05T17:32:11.538Z,99652.13
2022-08-05T17:34:43.594Z,99665.78
2022-08-05T17:37:36.032Z,99659.00
2022-08-05T17:40:00.082Z,99662.47
2022-08-05T17:42:30.062Z,99667.28
2022-08-05T17:45:00.667Z,99669.19
2022-08-05T17:47:45.747Z,99672.94
2022-08-05T17:50:22.743Z,99674.88
2022-08-05T17:52:54.957Z,99672.53
2022-08-05T17:55:22.788Z,99673.81
2022-08-05T17:58:02.165Z,99682.59
2022-08-05T18:00:29.622Z,99691.38
2022-08-05T18:02:56.790Z,99694.28
2022-08-05T18:05:23.816Z,99698.53
2022-08-05T18:07:54.803Z,99693.31
2022-08-05T18:10:24.216Z,99698.16
2022-08-05T18:12:51.121Z,99702.38
2022-08-05T18:15:17.935Z,99713.28
2022-08-05T18:18:01.076Z,99706.69
2022-08-05T18:20:32.419Z,99706.41
2022-08-05T18:23:09.567Z,99714.75
2022-08-05T18:25:41.449Z,99708.88
2022-08-05T18:28:16.355Z,99723.06
2022-08-05T18:30:50.940Z,99722.19
2022-08-05T18:33:22.529Z,99718.25
2022-08-05T18:36:05.205Z,99718.19
2022-08-05T18:38:38.527Z,99722.13
2022-08-05T18:41:55.880Z,99727.66
2022-08-05T18:43:53.986Z,99728.91
2022-08-05T18:46:20.789Z,99724.22
2022-08-05T18:48:52.670Z,99724.22
2022-08-05T18:52:05.669Z,99731.50
2022-08-05T18:54:31.554Z,99725.13
2022-08-05T18:57:01.154Z,99731.91
2022-08-05T18:59:42.874Z,99733.41
2022-08-05T19:02:27.791Z,99734.31
2022-08-05T19:06:05.310Z,99738.44
2022-08-05T19:07:52.480Z,99750.75
2022-08-05T19:10:28.152Z,99752.41
2022-08-05T19:12:55.202Z,99760.75
2022-08-05T19:15:56.694Z,99769.56
2022-08-05T19:18:13.586Z,99778.13
2022-08-05T19:20:51.480Z,99786.59
2022-08-05T19:24:03.291Z,99786.50
2022-08-05T19:26:04.715Z,99794.19
2022-08-05T19:28:35.228Z,99808.00
2022-08-05T19:31:05.890Z,99815.22
2022-08-05T19:33:36.775Z,99809.41
2022-08-05T19:36:06.501Z,99818.78
2022-08-05T19:38:35.769Z,99815.94
2022-08-05T19:41:07.016Z,99822.03
2022-08-05T19:44:06.256Z,99830.25
2022-08-05T19:46:29.594Z,99831.75
2022-08-05T19:49:01.300Z,99844.31
2022-08-05T19:52:05.155Z,99850.47
2022-08-05T19:54:29.600Z,99856.47
2022-08-05T19:57:06.806Z,99845.19
2022-08-05T19:59:56.418Z,99859.50
2022-08-05T20:02:23.393Z,99863.84
2022-08-05T20:04:50.467Z,99864.25
2022-08-05T20:07:47.212Z,99869.56
2022-08-05T20:10:13.149Z,99871.25
2022-08-05T20:12:46.172Z,99868.72
2022-08-05T20:15:47.822Z,99878.16
2022-08-05T20:18:10.532Z,99882.63
2022-08-05T20:20:55.164Z,99886.28
2022-08-05T20:23:39.569Z,99887.50
2022-08-05T20:26:16.625Z,99891.97
2022-08-05T20:28:53.962Z,99901.44
2022-08-05T20:31:36.902Z,99900.44
2022-08-05T20:34:11.574Z,99905.69
2022-08-05T20:36:43.329Z,99912.31
2022-08-05T20:39:12.848Z,99910.94
2022-08-05T20:41:44.239Z,99919.06
2022-08-05T20:44:29.134Z,99919.03
2022-08-05T20:46:58.368Z,99917.66
2022-08-05T20:49:25.931Z,99919.50
2022-08-05T20:51:54.037Z,99924.72
2022-08-05T20:54:22.102Z,99922.84
2022-08-05T20:56:49.120Z,99930.06
2022-08-05T20:59:26.278Z,99931.69
2022-08-05T21:01:56.293Z,99938.41
2022-08-05T21:04:26.915Z,99951.56
2022-08-05T21:06:54.112Z,99948.06
2022-08-05T21:09:20.741Z,99949.97
2022-08-05T21:12:09.312Z,99955.06
2022-08-05T21:14:34.910Z,99957.78
2022-08-05T21:17:05.307Z,99960.34
2022-08-05T21:19:47.311Z,99968.88
2022-08-05T21:22:18.278Z,99965.63
2022-08-05T21:24:49.016Z,99964.31
2022-08-05T21:27:18.253Z,99971.66
2022-08-05T21:29:48.395Z,99979.41
2022-08-05T21:32:23.698Z,99984.50
2022-08-05T21:35:06.823Z,99983.97
2022-08-05T21:37:41.026Z,99984.41
2022-08-05T21:40:13.034Z,99983.34
2022-08-05T21:42:43.987Z,99989.53
2022-08-05T21:45:12.041Z,99996.69
2022-08-05T21:47:56.924Z,99992.66
2022-08-05T21:50:28.132Z,99997.22
2022-08-05T21:52:58.984Z,100000.53
2022-08-05T21:56:00.981Z,100003.69
2022-08-05T21:58:19.271Z,100002.72
2022-08-05T22:00:51.306Z,100007.03
2022-08-05T22:03:18.049Z,100007.53
2022-08-05T22:05:48.507Z,100016.69
2022-08-05T22:08:22.150Z,100013.59
2022-08-05T22:10:53.181Z,100017.72
2022-08-05T22:14:06.460Z,100019.00
2022-08-05T22:16:20.460Z,100016.31
2022-08-05T22:18:53.275Z,100016.88
2022-08-05T22:21:19.981Z,100014.50
2022-08-05T22:24:09.214Z,100012.81
2022-08-05T22:26:58.558Z,100023.91
2022-08-05T22:29:30.854Z,100028.03
2022-08-05T22:32:03.263Z,100020.66
2022-08-05T22:34:31.240Z,100034.28
2022-08-05T22:36:58.790Z,100030.88
2022-08-05T22:39:31.142Z,100034.88
2022-08-05T22:42:10.353Z,100054.44
2022-08-05T22:44:38.733Z,100045.09
2022-08-05T22:47:05.690Z,100041.69
2022-08-05T22:50:20.986Z,100053.88
2022-08-05T22:52:30.678Z,100061.81
2022-08-05T22:55:00.966Z,100061.25
2022-08-05T22:57:27.515Z,100058.13
2022-08-05T23:00:05.035Z,100066.03
2022-08-05T23:02:35.597Z,100075.13
2022-08-05T23:05:12.962Z,100078.53
2022-08-05T23:07:48.663Z,100076.38
2022-08-05T23:10:19.707Z,100080.78
2022-08-05T23:12:51.215Z,100089.00
2022-08-05T23:15:18.438Z,100090.41
2022-08-05T23:18:00.466Z,100094.81
2022-08-05T23:20:29.748Z,100103.72
2022-08-05T23:22:56.628Z,100105.28
2022-08-05T23:25:51.635Z,100108.81
2022-08-05T23:28:12.621Z,100110.50
2022-08-05T23:30:43.496Z,100109.34
2022-08-05T23:33:16.001Z,100132.72
2022-08-05T23:35:45.559Z,100120.31
2022-08-05T23:38:12.284Z,100133.31
2022-08-05T23:40:40.768Z,100132.69
2022-08-05T23:43:11.394Z,100135.25
2022-08-05T23:45:52.432Z,100138.91
2022-08-05T23:48:19.735Z,100130.78
2022-08-05T23:50:47.436Z,100137.47
2022-08-05T23:53:22.996Z,100142.09
2022-08-05T23:55:49.746Z,100145.88
2022-08-05T23:58:31.900Z,100156.06
